sensor_id;sensor_type;location;lat;lon;timestamp;P1;durP1;ratioP1;P2;durP2;ratioP2
65418;SDS011;52027;50.658;14.004;2022-12-18T00:00:53;9.18;;;5.40;;
65418;SDS011;52027;50.658;14.004;2022-12-18T00:03:18;9.05;;;5.15;;
65418;SDS011;52027;50.658;14.004;2022-12-18T00:05:50;8.63;;;5.15;;
65418;SDS011;52027;50.658;14.004;2022-12-18T00:08:17;9.35;;;5.53;;
65418;SDS011;52027;50.658;14.004;2022-12-18T00:10:43;9.48;;;5.68;;
65418;SDS011;52027;50.658;14.004;2022-12-18T00:13:11;9.25;;;5.55;;
65418;SDS011;52027;50.658;14.004;2022-12-18T00:15:37;8.60;;;5.43;;
65418;SDS011;52027;50.658;14.004;2022-12-18T00:18:04;8.43;;;5.22;;
65418;SDS011;52027;50.658;14.004;2022-12-18T00:20:30;10.48;;;6.00;;
65418;SDS011;52027;50.658;14.004;2022-12-18T00:22:56;9.65;;;5.25;;
65418;SDS011;52027;50.658;14.004;2022-12-18T00:25:21;9.82;;;5.45;;
65418;SDS011;52027;50.658;14.004;2022-12-18T00:27:47;8.43;;;5.38;;
65418;SDS011;52027;50.658;14.004;2022-12-18T00:30:12;9.43;;;5.43;;
65418;SDS011;52027;50.658;14.004;2022-12-18T00:32:38;9.50;;;5.65;;
65418;SDS011;52027;50.658;14.004;2022-12-18T00:35:04;10.55;;;5.70;;
65418;SDS011;52027;50.658;14.004;2022-12-18T00:37:30;8.63;;;5.55;;
65418;SDS011;52027;50.658;14.004;2022-12-18T00:39:55;9.60;;;5.50;;
65418;SDS011;52027;50.658;14.004;2022-12-18T00:42:21;9.18;;;5.80;;
65418;SDS011;52027;50.658;14.004;2022-12-18T00:45:05;10.23;;;5.75;;
65418;SDS011;52027;50.658;14.004;2022-12-18T00:47:31;10.55;;;5.88;;
65418;SDS011;52027;50.658;14.004;2022-12-18T00:49:56;9.55;;;5.90;;
65418;SDS011;52027;50.658;14.004;2022-12-18T00:52:21;9.10;;;5.75;;
65418;SDS011;52027;50.658;14.004;2022-12-18T00:54:47;10.60;;;6.05;;
65418;SDS011;52027;50.658;14.004;2022-12-18T00:57:12;10.55;;;6.05;;
65418;SDS011;52027;50.658;14.004;2022-12-18T00:59:37;9.05;;;5.63;;
65418;SDS011;52027;50.658;14.004;2022-12-18T01:02:02;10.35;;;5.80;;
65418;SDS011;52027;50.658;14.004;2022-12-18T01:04:30;10.60;;;6.07;;
65418;SDS011;52027;50.658;14.004;2022-12-18T01:06:56;10.35;;;6.00;;
65418;SDS011;52027;50.658;14.004;2022-12-18T01:09:21;11.30;;;6.10;;
65418;SDS011;52027;50.658;14.004;2022-12-18T01:11:47;10.25;;;6.05;;
65418;SDS011;52027;50.658;14.004;2022-12-18T01:14:12;9.75;;;6.22;;
65418;SDS011;52027;50.658;14.004;2022-12-18T01:16:37;12.07;;;6.60;;
65418;SDS011;52027;50.658;14.004;2022-12-18T01:19:03;12.18;;;6.40;;
65418;SDS011;52027;50.658;14.004;2022-12-18T01:21:28;12.63;;;6.80;;
65418;SDS011;52027;50.658;14.004;2022-12-18T01:23:54;10.52;;;6.22;;
65418;SDS011;52027;50.658;14.004;2022-12-18T01:26:20;11.38;;;6.93;;
65418;SDS011;52027;50.658;14.004;2022-12-18T01:28:46;11.25;;;6.60;;
65418;SDS011;52027;50.658;14.004;2022-12-18T01:31:17;10.40;;;6.05;;
65418;SDS011;52027;50.658;14.004;2022-12-18T01:33:43;11.30;;;6.63;;
65418;SDS011;52027;50.658;14.004;2022-12-18T01:36:13;11.15;;;6.78;;
65418;SDS011;52027;50.658;14.004;2022-12-18T01:38:45;12.15;;;6.50;;
65418;SDS011;52027;50.658;14.004;2022-12-18T01:41:10;10.85;;;6.55;;
65418;SDS011;52027;50.658;14.004;2022-12-18T01:43:40;11.63;;;6.78;;
65418;SDS011;52027;50.658;14.004;2022-12-18T01:46:07;11.35;;;6.68;;
65418;SDS011;52027;50.658;14.004;2022-12-18T01:48:32;10.65;;;6.28;;
65418;SDS011;52027;50.658;14.004;2022-12-18T01:50:57;11.07;;;6.35;;
65418;SDS011;52027;50.658;14.004;2022-12-18T01:53:25;11.50;;;6.72;;
65418;SDS011;52027;50.658;14.004;2022-12-18T01:55:52;12.00;;;6.53;;
65418;SDS011;52027;50.658;14.004;2022-12-18T01:58:21;10.85;;;6.40;;
65418;SDS011;52027;50.658;14.004;2022-12-18T02:00:55;11.88;;;6.55;;
65418;SDS011;52027;50.658;14.004;2022-12-18T02:03:20;11.23;;;6.65;;
65418;SDS011;52027;50.658;14.004;2022-12-18T02:05:52;11.55;;;6.93;;
65418;SDS011;52027;50.658;14.004;2022-12-18T02:08:48;12.60;;;6.80;;
65418;SDS011;52027;50.658;14.004;2022-12-18T02:14:25;11.35;;;6.45;;
65418;SDS011;52027;50.658;14.004;2022-12-18T02:17:03;11.35;;;6.53;;
65418;SDS011;52027;50.658;14.004;2022-12-18T02:28:28;12.07;;;6.97;;
65418;SDS011;52027;50.658;14.004;2022-12-18T02:30:57;12.45;;;7.10;;
65418;SDS011;52027;50.658;14.004;2022-12-18T02:33:26;12.80;;;7.28;;
65418;SDS011;52027;50.658;14.004;2022-12-18T02:35:53;12.55;;;7.28;;
65418;SDS011;52027;50.658;14.004;2022-12-18T02:38:21;11.73;;;7.22;;
65418;SDS011;52027;50.658;14.004;2022-12-18T02:40:48;12.63;;;7.05;;
65418;SDS011;52027;50.658;14.004;2022-12-18T02:43:15;13.13;;;7.10;;
65418;SDS011;52027;50.658;14.004;2022-12-18T02:45:50;12.23;;;7.10;;
65418;SDS011;52027;50.658;14.004;2022-12-18T02:48:19;12.05;;;6.90;;
65418;SDS011;52027;50.658;14.004;2022-12-18T02:50:57;11.90;;;6.70;;
65418;SDS011;52027;50.658;14.004;2022-12-18T02:53:43;12.67;;;6.93;;
65418;SDS011;52027;50.658;14.004;2022-12-18T02:56:14;12.17;;;7.07;;
65418;SDS011;52027;50.658;14.004;2022-12-18T03:03:59;11.63;;;7.15;;
65418;SDS011;52027;50.658;14.004;2022-12-18T03:06:37;12.32;;;7.28;;
65418;SDS011;52027;50.658;14.004;2022-12-18T03:09:07;13.73;;;7.22;;
65418;SDS011;52027;50.658;14.004;2022-12-18T03:11:37;13.02;;;7.38;;
65418;SDS011;52027;50.658;14.004;2022-12-18T03:14:23;11.80;;;7.03;;
65418;SDS011;52027;50.658;14.004;2022-12-18T03:16:53;12.35;;;7.43;;
65418;SDS011;52027;50.658;14.004;2022-12-18T03:19:23;12.07;;;7.10;;
65418;SDS011;52027;50.658;14.004;2022-12-18T03:21:53;13.20;;;7.32;;
65418;SDS011;52027;50.658;14.004;2022-12-18T03:24:20;13.80;;;7.55;;
65418;SDS011;52027;50.658;14.004;2022-12-18T03:26:48;13.07;;;7.45;;
65418;SDS011;52027;50.658;14.004;2022-12-18T03:29:38;12.95;;;7.28;;
65418;SDS011;52027;50.658;14.004;2022-12-18T03:32:09;11.82;;;7.35;;
65418;SDS011;52027;50.658;14.004;2022-12-18T03:34:40;14.10;;;7.57;;
65418;SDS011;52027;50.658;14.004;2022-12-18T03:37:07;12.77;;;7.15;;
65418;SDS011;52027;50.658;14.004;2022-12-18T03:39:33;13.13;;;7.70;;
65418;SDS011;52027;50.658;14.004;2022-12-18T03:44:58;13.10;;;7.20;;
65418;SDS011;52027;50.658;14.004;2022-12-18T03:47:29;13.73;;;7.70;;
65418;SDS011;52027;50.658;14.004;2022-12-18T03:50:03;12.68;;;7.20;;
65418;SDS011;52027;50.658;14.004;2022-12-18T03:52:49;12.73;;;7.30;;
65418;SDS011;52027;50.658;14.004;2022-12-18T03:55:18;13.13;;;7.37;;
65418;SDS011;52027;50.658;14.004;2022-12-18T03:57:45;13.40;;;7.63;;
65418;SDS011;52027;50.658;14.004;2022-12-18T04:00:13;12.73;;;7.13;;
65418;SDS011;52027;50.658;14.004;2022-12-18T04:02:45;13.60;;;7.57;;
65418;SDS011;52027;50.658;14.004;2022-12-18T04:05:15;13.73;;;7.55;;
65418;SDS011;52027;50.658;14.004;2022-12-18T04:07:42;14.35;;;7.90;;
65418;SDS011;52027;50.658;14.004;2022-12-18T04:10:09;13.80;;;7.32;;
65418;SDS011;52027;50.658;14.004;2022-12-18T04:12:36;13.35;;;7.53;;
65418;SDS011;52027;50.658;14.004;2022-12-18T04:15:02;13.55;;;7.70;;
65418;SDS011;52027;50.658;14.004;2022-12-18T04:17:28;13.68;;;7.90;;
65418;SDS011;52027;50.658;14.004;2022-12-18T04:19:54;13.55;;;7.80;;
65418;SDS011;52027;50.658;14.004;2022-12-18T04:22:19;12.90;;;7.78;;
65418;SDS011;52027;50.658;14.004;2022-12-18T04:24:44;12.40;;;7.60;;
65418;SDS011;52027;50.658;14.004;2022-12-18T04:27:10;13.30;;;7.40;;
65418;SDS011;52027;50.658;14.004;2022-12-18T04:29:35;13.52;;;7.60;;
65418;SDS011;52027;50.658;14.004;2022-12-18T04:32:00;15.13;;;7.80;;
65418;SDS011;52027;50.658;14.004;2022-12-18T04:34:25;13.80;;;7.90;;
65418;SDS011;52027;50.658;14.004;2022-12-18T04:36:51;13.60;;;7.03;;
65418;SDS011;52027;50.658;14.004;2022-12-18T04:39:16;13.00;;;7.38;;
65418;SDS011;52027;50.658;14.004;2022-12-18T04:41:44;14.27;;;7.57;;
65418;SDS011;52027;50.658;14.004;2022-12-18T04:44:09;12.45;;;7.75;;
65418;SDS011;52027;50.658;14.004;2022-12-18T04:46:35;13.90;;;7.90;;
65418;SDS011;52027;50.658;14.004;2022-12-18T04:49:00;12.95;;;7.95;;
65418;SDS011;52027;50.658;14.004;2022-12-18T04:51:25;12.73;;;7.43;;
65418;SDS011;52027;50.658;14.004;2022-12-18T04:53:51;13.88;;;7.93;;
65418;SDS011;52027;50.658;14.004;2022-12-18T04:56:16;13.95;;;8.05;;
65418;SDS011;52027;50.658;14.004;2022-12-18T04:58:42;14.48;;;7.85;;
65418;SDS011;52027;50.658;14.004;2022-12-18T05:01:09;13.98;;;7.63;;
65418;SDS011;52027;50.658;14.004;2022-12-18T05:03:35;13.70;;;7.43;;
65418;SDS011;52027;50.658;14.004;2022-12-18T05:06:01;13.60;;;7.93;;
65418;SDS011;52027;50.658;14.004;2022-12-18T05:08:27;12.98;;;7.50;;
65418;SDS011;52027;50.658;14.004;2022-12-18T05:13:47;14.05;;;8.07;;
65418;SDS011;52027;50.658;14.004;2022-12-18T05:16:13;12.85;;;7.78;;
65418;SDS011;52027;50.658;14.004;2022-12-18T05:18:39;14.25;;;7.95;;
65418;SDS011;52027;50.658;14.004;2022-12-18T05:21:05;13.57;;;7.90;;
65418;SDS011;52027;50.658;14.004;2022-12-18T05:23:30;14.40;;;7.68;;
65418;SDS011;52027;50.658;14.004;2022-12-18T05:25:56;14.05;;;8.00;;
65418;SDS011;52027;50.658;14.004;2022-12-18T05:28:24;13.38;;;8.02;;
65418;SDS011;52027;50.658;14.004;2022-12-18T05:30:51;13.95;;;7.68;;
65418;SDS011;52027;50.658;14.004;2022-12-18T05:33:18;13.63;;;7.78;;
65418;SDS011;52027;50.658;14.004;2022-12-18T05:35:44;12.90;;;7.53;;
65418;SDS011;52027;50.658;14.004;2022-12-18T05:38:14;14.00;;;7.80;;
65418;SDS011;52027;50.658;14.004;2022-12-18T05:40:41;12.32;;;7.60;;
65418;SDS011;52027;50.658;14.004;2022-12-18T05:43:07;13.77;;;7.40;;
65418;SDS011;52027;50.658;14.004;2022-12-18T05:45:32;12.77;;;7.47;;
65418;SDS011;52027;50.658;14.004;2022-12-18T05:48:02;12.00;;;7.35;;
65418;SDS011;52027;50.658;14.004;2022-12-18T05:50:27;14.18;;;7.90;;
65418;SDS011;52027;50.658;14.004;2022-12-18T05:52:53;14.48;;;7.93;;
65418;SDS011;52027;50.658;14.004;2022-12-18T05:55:18;13.02;;;7.85;;
65418;SDS011;52027;50.658;14.004;2022-12-18T05:57:43;14.13;;;7.85;;
65418;SDS011;52027;50.658;14.004;2022-12-18T06:00:09;12.82;;;7.65;;
65418;SDS011;52027;50.658;14.004;2022-12-18T06:02:34;13.93;;;7.88;;
65418;SDS011;52027;50.658;14.004;2022-12-18T06:05:00;14.30;;;7.65;;
65418;SDS011;52027;50.658;14.004;2022-12-18T06:07:25;13.80;;;7.78;;
65418;SDS011;52027;50.658;14.004;2022-12-18T06:09:50;14.10;;;8.00;;
65418;SDS011;52027;50.658;14.004;2022-12-18T06:12:16;13.70;;;7.72;;
65418;SDS011;52027;50.658;14.004;2022-12-18T06:14:41;14.05;;;8.13;;
65418;SDS011;52027;50.658;14.004;2022-12-18T06:17:06;13.15;;;7.85;;
65418;SDS011;52027;50.658;14.004;2022-12-18T06:19:32;14.00;;;7.90;;
65418;SDS011;52027;50.658;14.004;2022-12-18T06:21:57;12.43;;;7.55;;
65418;SDS011;52027;50.658;14.004;2022-12-18T06:24:23;13.02;;;7.57;;
65418;SDS011;52027;50.658;14.004;2022-12-18T06:26:49;13.73;;;7.80;;
65418;SDS011;52027;50.658;14.004;2022-12-18T06:29:14;13.10;;;8.00;;
65418;SDS011;52027;50.658;14.004;2022-12-18T06:31:39;12.90;;;7.50;;
65418;SDS011;52027;50.658;14.004;2022-12-18T06:34:05;12.20;;;7.07;;
65418;SDS011;52027;50.658;14.004;2022-12-18T06:36:30;13.25;;;7.78;;
65418;SDS011;52027;50.658;14.004;2022-12-18T06:38:56;13.18;;;7.43;;
65418;SDS011;52027;50.658;14.004;2022-12-18T06:41:22;12.82;;;7.88;;
65418;SDS011;52027;50.658;14.004;2022-12-18T06:43:48;13.88;;;7.97;;
65418;SDS011;52027;50.658;14.004;2022-12-18T06:46:13;13.82;;;8.10;;
65418;SDS011;52027;50.658;14.004;2022-12-18T06:48:38;11.88;;;7.20;;
65418;SDS011;52027;50.658;14.004;2022-12-18T06:51:04;12.52;;;7.22;;
65418;SDS011;52027;50.658;14.004;2022-12-18T06:53:30;13.77;;;7.63;;
65418;SDS011;52027;50.658;14.004;2022-12-18T06:56:03;14.07;;;7.88;;
65418;SDS011;52027;50.658;14.004;2022-12-18T06:58:31;13.38;;;7.47;;
65418;SDS011;52027;50.658;14.004;2022-12-18T07:01:00;12.90;;;7.47;;
65418;SDS011;52027;50.658;14.004;2022-12-18T07:03:26;13.02;;;7.65;;
65418;SDS011;52027;50.658;14.004;2022-12-18T07:05:51;14.60;;;8.20;;
65418;SDS011;52027;50.658;14.004;2022-12-18T07:08:17;13.48;;;7.70;;
65418;SDS011;52027;50.658;14.004;2022-12-18T07:10:42;13.20;;;7.80;;
65418;SDS011;52027;50.658;14.004;2022-12-18T07:13:08;13.32;;;7.85;;
65418;SDS011;52027;50.658;14.004;2022-12-18T07:15:33;13.15;;;7.68;;
65418;SDS011;52027;50.658;14.004;2022-12-18T07:17:59;12.18;;;7.43;;
65418;SDS011;52027;50.658;14.004;2022-12-18T07:20:24;12.50;;;7.63;;
65418;SDS011;52027;50.658;14.004;2022-12-18T07:22:49;11.95;;;7.38;;
65418;SDS011;52027;50.658;14.004;2022-12-18T07:25:15;11.98;;;7.15;;
65418;SDS011;52027;50.658;14.004;2022-12-18T07:27:40;13.13;;;7.80;;
65418;SDS011;52027;50.658;14.004;2022-12-18T07:30:05;12.38;;;7.60;;
65418;SDS011;52027;50.658;14.004;2022-12-18T07:32:31;13.20;;;7.50;;
65418;SDS011;52027;50.658;14.004;2022-12-18T07:34:57;12.73;;;7.55;;
65418;SDS011;52027;50.658;14.004;2022-12-18T07:37:22;11.98;;;7.40;;
65418;SDS011;52027;50.658;14.004;2022-12-18T07:39:47;12.80;;;7.38;;
65418;SDS011;52027;50.658;14.004;2022-12-18T07:42:13;12.80;;;7.85;;
65418;SDS011;52027;50.658;14.004;2022-12-18T07:44:59;13.00;;;7.40;;
65418;SDS011;52027;50.658;14.004;2022-12-18T07:47:27;13.65;;;7.60;;
65418;SDS011;52027;50.658;14.004;2022-12-18T07:49:53;12.77;;;7.43;;
65418;SDS011;52027;50.658;14.004;2022-12-18T07:52:18;12.52;;;7.53;;
65418;SDS011;52027;50.658;14.004;2022-12-18T07:54:44;13.15;;;7.70;;
65418;SDS011;52027;50.658;14.004;2022-12-18T07:57:10;13.05;;;7.50;;
65418;SDS011;52027;50.658;14.004;2022-12-18T07:59:36;12.65;;;7.45;;
65418;SDS011;52027;50.658;14.004;2022-12-18T08:02:01;11.60;;;7.28;;
65418;SDS011;52027;50.658;14.004;2022-12-18T08:04:26;12.07;;;7.28;;
65418;SDS011;52027;50.658;14.004;2022-12-18T08:06:52;12.73;;;7.38;;
65418;SDS011;52027;50.658;14.004;2022-12-18T08:09:17;12.32;;;7.45;;
65418;SDS011;52027;50.658;14.004;2022-12-18T08:11:42;12.43;;;7.38;;
65418;SDS011;52027;50.658;14.004;2022-12-18T08:14:08;12.25;;;7.32;;
65418;SDS011;52027;50.658;14.004;2022-12-18T08:16:34;11.68;;;7.28;;
65418;SDS011;52027;50.658;14.004;2022-12-18T08:19:00;11.85;;;7.00;;
65418;SDS011;52027;50.658;14.004;2022-12-18T08:21:27;13.25;;;7.70;;
65418;SDS011;52027;50.658;14.004;2022-12-18T08:23:54;12.77;;;7.43;;
65418;SDS011;52027;50.658;14.004;2022-12-18T08:26:21;12.85;;;7.78;;
65418;SDS011;52027;50.658;14.004;2022-12-18T08:28:48;13.10;;;7.60;;
65418;SDS011;52027;50.658;14.004;2022-12-18T08:31:15;13.20;;;7.70;;
65418;SDS011;52027;50.658;14.004;2022-12-18T08:33:40;11.63;;;7.35;;
65418;SDS011;52027;50.658;14.004;2022-12-18T08:36:06;12.68;;;7.43;;
65418;SDS011;52027;50.658;14.004;2022-12-18T08:38:33;12.90;;;7.57;;
65418;SDS011;52027;50.658;14.004;2022-12-18T08:40:58;12.32;;;7.43;;
65418;SDS011;52027;50.658;14.004;2022-12-18T08:43:25;14.30;;;7.80;;
65418;SDS011;52027;50.658;14.004;2022-12-18T08:46:09;13.50;;;7.35;;
65418;SDS011;52027;50.658;14.004;2022-12-18T08:48:35;12.20;;;7.03;;
65418;SDS011;52027;50.658;14.004;2022-12-18T08:51:00;11.80;;;6.97;;
65418;SDS011;52027;50.658;14.004;2022-12-18T08:53:26;12.45;;;7.40;;
65418;SDS011;52027;50.658;14.004;2022-12-18T08:55:51;12.35;;;7.28;;
65418;SDS011;52027;50.658;14.004;2022-12-18T08:58:17;12.25;;;7.25;;
65418;SDS011;52027;50.658;14.004;2022-12-18T09:00:43;13.20;;;7.22;;
65418;SDS011;52027;50.658;14.004;2022-12-18T09:03:18;12.52;;;7.40;;
65418;SDS011;52027;50.658;14.004;2022-12-18T09:05:45;12.05;;;7.38;;
65418;SDS011;52027;50.658;14.004;2022-12-18T09:08:10;12.68;;;7.25;;
65418;SDS011;52027;50.658;14.004;2022-12-18T09:10:43;13.00;;;7.53;;
65418;SDS011;52027;50.658;14.004;2022-12-18T09:13:09;12.75;;;7.28;;
65418;SDS011;52027;50.658;14.004;2022-12-18T09:15:46;12.30;;;7.18;;
65418;SDS011;52027;50.658;14.004;2022-12-18T09:18:13;11.68;;;7.10;;
65418;SDS011;52027;50.658;14.004;2022-12-18T09:20:40;11.88;;;7.30;;
65418;SDS011;52027;50.658;14.004;2022-12-18T09:23:06;10.80;;;6.68;;
65418;SDS011;52027;50.658;14.004;2022-12-18T09:25:32;11.57;;;7.05;;
65418;SDS011;52027;50.658;14.004;2022-12-18T09:28:06;11.85;;;6.97;;
65418;SDS011;52027;50.658;14.004;2022-12-18T09:30:39;12.00;;;7.32;;
65418;SDS011;52027;50.658;14.004;2022-12-18T09:33:09;13.23;;;7.38;;
65418;SDS011;52027;50.658;14.004;2022-12-18T09:35:43;12.48;;;7.55;;
65418;SDS011;52027;50.658;14.004;2022-12-18T09:38:11;12.95;;;7.80;;
65418;SDS011;52027;50.658;14.004;2022-12-18T09:40:41;11.75;;;7.15;;
65418;SDS011;52027;50.658;14.004;2022-12-18T09:43:11;12.23;;;6.97;;
65418;SDS011;52027;50.658;14.004;2022-12-18T09:45:44;11.65;;;6.85;;
65418;SDS011;52027;50.658;14.004;2022-12-18T09:48:55;12.13;;;7.53;;
65418;SDS011;52027;50.658;14.004;2022-12-18T09:54:06;11.80;;;7.30;;
65418;SDS011;52027;50.658;14.004;2022-12-18T09:56:38;12.35;;;7.32;;
65418;SDS011;52027;50.658;14.004;2022-12-18T09:59:09;12.90;;;7.07;;
65418;SDS011;52027;50.658;14.004;2022-12-18T10:01:45;11.63;;;7.18;;
65418;SDS011;52027;50.658;14.004;2022-12-18T10:04:10;12.48;;;7.28;;
65418;SDS011;52027;50.658;14.004;2022-12-18T10:06:40;11.32;;;7.03;;
65418;SDS011;52027;50.658;14.004;2022-12-18T10:09:20;11.18;;;6.88;;
65418;SDS011;52027;50.658;14.004;2022-12-18T10:14:19;11.37;;;6.70;;
65418;SDS011;52027;50.658;14.004;2022-12-18T10:25:19;11.80;;;7.30;;
65418;SDS011;52027;50.658;14.004;2022-12-18T10:27:51;11.20;;;6.47;;
65418;SDS011;52027;50.658;14.004;2022-12-18T10:30:21;12.10;;;7.25;;
65418;SDS011;52027;50.658;14.004;2022-12-18T10:32:48;11.27;;;6.80;;
65418;SDS011;52027;50.658;14.004;2022-12-18T10:35:21;11.40;;;7.43;;
65418;SDS011;52027;50.658;14.004;2022-12-18T10:38:02;12.02;;;6.97;;
65418;SDS011;52027;50.658;14.004;2022-12-18T10:40:28;11.48;;;7.20;;
65418;SDS011;52027;50.658;14.004;2022-12-18T10:43:03;11.18;;;7.10;;
65418;SDS011;52027;50.658;14.004;2022-12-18T10:45:30;10.80;;;7.00;;
65418;SDS011;52027;50.658;14.004;2022-12-18T10:47:55;12.55;;;6.88;;
65418;SDS011;52027;50.658;14.004;2022-12-18T10:50:39;11.90;;;7.20;;
65418;SDS011;52027;50.658;14.004;2022-12-18T10:53:04;10.80;;;6.95;;
65418;SDS011;52027;50.658;14.004;2022-12-18T10:55:37;11.15;;;7.05;;
65418;SDS011;52027;50.658;14.004;2022-12-18T10:58:20;12.15;;;7.00;;
65418;SDS011;52027;50.658;14.004;2022-12-18T11:08:28;10.73;;;6.60;;
65418;SDS011;52027;50.658;14.004;2022-12-18T11:10:53;10.93;;;6.93;;
65418;SDS011;52027;50.658;14.004;2022-12-18T11:13:22;11.45;;;6.72;;
65418;SDS011;52027;50.658;14.004;2022-12-18T11:15:52;11.18;;;6.68;;
65418;SDS011;52027;50.658;14.004;2022-12-18T11:18:28;10.55;;;6.70;;
65418;SDS011;52027;50.658;14.004;2022-12-18T11:21:06;11.73;;;6.97;;
65418;SDS011;52027;50.658;14.004;2022-12-18T11:23:34;11.55;;;7.10;;
65418;SDS011;52027;50.658;14.004;2022-12-18T11:26:02;11.18;;;6.82;;
65418;SDS011;52027;50.658;14.004;2022-12-18T11:28:46;11.93;;;7.10;;
65418;SDS011;52027;50.658;14.004;2022-12-18T11:31:20;11.23;;;6.97;;
65418;SDS011;52027;50.658;14.004;2022-12-18T11:36:28;10.75;;;6.72;;
65418;SDS011;52027;50.658;14.004;2022-12-18T11:38:58;10.77;;;6.68;;
65418;SDS011;52027;50.658;14.004;2022-12-18T11:44:38;11.02;;;6.47;;
65418;SDS011;52027;50.658;14.004;2022-12-18T11:49:50;10.52;;;6.63;;
65418;SDS011;52027;50.658;14.004;2022-12-18T11:52:21;11.70;;;6.65;;
65418;SDS011;52027;50.658;14.004;2022-12-18T11:54:51;10.90;;;6.88;;
65418;SDS011;52027;50.658;14.004;2022-12-18T12:00:12;10.90;;;6.68;;
65418;SDS011;52027;50.658;14.004;2022-12-18T12:14:12;11.52;;;6.70;;
65418;SDS011;52027;50.658;14.004;2022-12-18T12:16:50;11.25;;;7.00;;
65418;SDS011;52027;50.658;14.004;2022-12-18T12:27:35;11.50;;;6.88;;
65418;SDS011;52027;50.658;14.004;2022-12-18T12:30:20;10.68;;;6.55;;
65418;SDS011;52027;50.658;14.004;2022-12-18T12:38:09;10.82;;;6.78;;
65418;SDS011;52027;50.658;14.004;2022-12-18T12:40:39;11.38;;;7.10;;
65418;SDS011;52027;50.658;14.004;2022-12-18T12:43:19;11.65;;;6.97;;
65418;SDS011;52027;50.658;14.004;2022-12-18T12:45:50;11.77;;;6.80;;
65418;SDS011;52027;50.658;14.004;2022-12-18T12:48:40;10.73;;;6.47;;
65418;SDS011;52027;50.658;14.004;2022-12-18T12:51:11;11.10;;;6.60;;
65418;SDS011;52027;50.658;14.004;2022-12-18T12:53:40;11.45;;;6.45;;
65418;SDS011;52027;50.658;14.004;2022-12-18T12:56:06;11.70;;;7.03;;
65418;SDS011;52027;50.658;14.004;2022-12-18T12:58:39;10.85;;;6.70;;
65418;SDS011;52027;50.658;14.004;2022-12-18T13:06:17;10.60;;;6.67;;
65418;SDS011;52027;50.658;14.004;2022-12-18T13:08:54;10.63;;;6.70;;
65418;SDS011;52027;50.658;14.004;2022-12-18T13:11:31;10.02;;;6.50;;
65418;SDS011;52027;50.658;14.004;2022-12-18T13:14:22;10.25;;;6.47;;
65418;SDS011;52027;50.658;14.004;2022-12-18T13:19:49;9.82;;;6.43;;
65418;SDS011;52027;50.658;14.004;2022-12-18T13:22:35;10.88;;;6.60;;
65418;SDS011;52027;50.658;14.004;2022-12-18T13:25:03;11.45;;;6.70;;
65418;SDS011;52027;50.658;14.004;2022-12-18T13:27:59;10.88;;;6.82;;
65418;SDS011;52027;50.658;14.004;2022-12-18T13:40:58;10.52;;;6.70;;
65418;SDS011;52027;50.658;14.004;2022-12-18T13:46:06;10.55;;;6.68;;
65418;SDS011;52027;50.658;14.004;2022-12-18T13:48:48;9.83;;;6.30;;
65418;SDS011;52027;50.658;14.004;2022-12-18T13:51:27;9.15;;;6.13;;
65418;SDS011;52027;50.658;14.004;2022-12-18T13:56:46;11.73;;;6.40;;
65418;SDS011;52027;50.658;14.004;2022-12-18T14:01:51;10.10;;;6.22;;
65418;SDS011;52027;50.658;14.004;2022-12-18T14:06:52;10.15;;;6.22;;
65418;SDS011;52027;50.658;14.004;2022-12-18T14:09:23;10.70;;;6.65;;
65418;SDS011;52027;50.658;14.004;2022-12-18T14:11:50;11.00;;;6.40;;
65418;SDS011;52027;50.658;14.004;2022-12-18T14:14:17;9.77;;;6.10;;
65418;SDS011;52027;50.658;14.004;2022-12-18T14:16:44;10.30;;;6.45;;
65418;SDS011;52027;50.658;14.004;2022-12-18T14:19:15;9.85;;;6.40;;
65418;SDS011;52027;50.658;14.004;2022-12-18T14:21:49;10.07;;;6.55;;
65418;SDS011;52027;50.658;14.004;2022-12-18T14:24:16;11.98;;;6.53;;
65418;SDS011;52027;50.658;14.004;2022-12-18T14:26:43;10.95;;;6.53;;
65418;SDS011;52027;50.658;14.004;2022-12-18T14:31:44;9.77;;;6.38;;
65418;SDS011;52027;50.658;14.004;2022-12-18T14:34:16;9.98;;;6.38;;
65418;SDS011;52027;50.658;14.004;2022-12-18T14:36:51;10.48;;;6.60;;
65418;SDS011;52027;50.658;14.004;2022-12-18T14:39:18;9.38;;;6.00;;
65418;SDS011;52027;50.658;14.004;2022-12-18T14:41:43;9.63;;;6.13;;
65418;SDS011;52027;50.658;14.004;2022-12-18T14:44:11;9.75;;;6.22;;
65418;SDS011;52027;50.658;14.004;2022-12-18T14:46:38;9.82;;;6.25;;
65418;SDS011;52027;50.658;14.004;2022-12-18T14:51:52;9.93;;;6.18;;
65418;SDS011;52027;50.658;14.004;2022-12-18T14:54:21;11.27;;;6.55;;
65418;SDS011;52027;50.658;14.004;2022-12-18T14:56:48;9.70;;;6.07;;
65418;SDS011;52027;50.658;14.004;2022-12-18T15:01:48;10.02;;;6.20;;
65418;SDS011;52027;50.658;14.004;2022-12-18T15:04:35;10.15;;;6.22;;
65418;SDS011;52027;50.658;14.004;2022-12-18T15:12:41;9.73;;;6.13;;
65418;SDS011;52027;50.658;14.004;2022-12-18T15:17:58;9.23;;;5.82;;
65418;SDS011;52027;50.658;14.004;2022-12-18T15:20:33;9.02;;;5.80;;
65418;SDS011;52027;50.658;14.004;2022-12-18T15:23:12;10.00;;;6.32;;
65418;SDS011;52027;50.658;14.004;2022-12-18T15:25:49;9.40;;;5.95;;
65418;SDS011;52027;50.658;14.004;2022-12-18T15:28:39;9.45;;;5.88;;
65418;SDS011;52027;50.658;14.004;2022-12-18T15:33:37;8.93;;;5.85;;
65418;SDS011;52027;50.658;14.004;2022-12-18T15:36:07;9.18;;;5.80;;
65418;SDS011;52027;50.658;14.004;2022-12-18T15:38:35;11.18;;;6.30;;
65418;SDS011;52027;50.658;14.004;2022-12-18T15:41:01;10.15;;;6.05;;
65418;SDS011;52027;50.658;14.004;2022-12-18T15:43:30;9.48;;;5.95;;
65418;SDS011;52027;50.658;14.004;2022-12-18T15:45:58;9.95;;;6.00;;
65418;SDS011;52027;50.658;14.004;2022-12-18T15:48:24;9.38;;;5.85;;
65418;SDS011;52027;50.658;14.004;2022-12-18T15:50:50;9.48;;;6.05;;
65418;SDS011;52027;50.658;14.004;2022-12-18T15:53:18;9.27;;;6.10;;
65418;SDS011;52027;50.658;14.004;2022-12-18T15:55:44;8.85;;;5.85;;
65418;SDS011;52027;50.658;14.004;2022-12-18T15:58:28;9.35;;;6.20;;
65418;SDS011;52027;50.658;14.004;2022-12-18T16:00:53;9.65;;;6.00;;
65418;SDS011;52027;50.658;14.004;2022-12-18T16:03:21;9.90;;;5.97;;
65418;SDS011;52027;50.658;14.004;2022-12-18T16:05:46;9.88;;;6.40;;
65418;SDS011;52027;50.658;14.004;2022-12-18T16:08:12;8.75;;;5.57;;
65418;SDS011;52027;50.658;14.004;2022-12-18T16:10:37;9.68;;;5.95;;
65418;SDS011;52027;50.658;14.004;2022-12-18T16:13:02;10.02;;;6.05;;
65418;SDS011;52027;50.658;14.004;2022-12-18T16:15:28;9.20;;;5.82;;
65418;SDS011;52027;50.658;14.004;2022-12-18T16:17:53;10.32;;;6.10;;
65418;SDS011;52027;50.658;14.004;2022-12-18T16:20:19;10.13;;;6.22;;
65418;SDS011;52027;50.658;14.004;2022-12-18T16:22:46;9.77;;;5.95;;
65418;SDS011;52027;50.658;14.004;2022-12-18T16:25:26;8.93;;;5.63;;
65418;SDS011;52027;50.658;14.004;2022-12-18T16:27:53;9.60;;;6.05;;
65418;SDS011;52027;50.658;14.004;2022-12-18T16:30:29;9.88;;;5.80;;
65418;SDS011;52027;50.658;14.004;2022-12-18T16:32:56;8.98;;;5.65;;
65418;SDS011;52027;50.658;14.004;2022-12-18T16:35:24;9.15;;;5.60;;
65418;SDS011;52027;50.658;14.004;2022-12-18T16:37:50;8.75;;;5.70;;
65418;SDS011;52027;50.658;14.004;2022-12-18T16:40:16;8.95;;;5.40;;
65418;SDS011;52027;50.658;14.004;2022-12-18T16:42:42;9.60;;;5.88;;